createdAt,value
2022-09-27T04:54:57.708Z,24.4
2022-09-27T05:00:19.110Z,24.2
2022-09-27T05:05:40.797Z,24.1
2022-09-27T05:11:03.693Z,23.9
2022-09-27T05:16:25.797Z,23.8
2022-09-27T05:22:02.681Z,23.7
2022-09-27T05:27:28.751Z,23.6
2022-09-27T05:32:51.150Z,23.6
2022-09-27T05:38:14.703Z,23.5
2022-09-27T05:44:01.258Z,23.4
2022-09-27T05:49:24.069Z,23.4
2022-09-27T05:54:48.841Z,23.4
2022-09-27T06:00:27.245Z,23.4
2022-09-27T06:05:51.401Z,23.3
2022-09-27T06:11:13.497Z,23.3
2022-09-27T06:16:51.939Z,23.3
2022-09-27T06:22:29.444Z,23.3
2022-09-27T06:28:06.697Z,23.3
2022-09-27T06:33:45.674Z,23.2
2022-09-27T06:39:23.306Z,23.2
2022-09-27T06:45:06.461Z,23.2
2022-09-27T06:50:44.758Z,23.2
2022-09-27T06:56:22.155Z,23.1
2022-09-27T07:02:05.778Z,23.2
2022-09-27T07:07:33.805Z,23.3
2022-09-27T07:13:16.791Z,23.3
2022-09-27T07:18:23.624Z,23.3
2022-09-27T07:23:30.985Z,23.3
2022-09-27T07:29:11.708Z,23.3
2022-09-27T07:34:33.355Z,23.3
2022-09-27T07:40:11.886Z,23.3
2022-09-27T07:45:50.588Z,23.3
2022-09-27T07:51:12.797Z,23.3
2022-09-27T07:56:54.918Z,23.2
2022-09-27T08:02:34.106Z,23.2
2022-09-27T08:07:55.285Z,23.2
2022-09-27T08:13:17.978Z,23.2
2022-09-27T08:18:57.602Z,23.1
2022-09-27T08:24:19.110Z,22.9
2022-09-27T08:29:58.523Z,22.8
2022-09-27T08:35:41.611Z,22.8
2022-09-27T08:41:06.316Z,22.6
2022-09-27T08:46:44.676Z,22.6
2022-09-27T08:52:23.236Z,22.5
2022-09-27T08:58:00.220Z,22.4
2022-09-27T17:52:49.926Z,22.3
2022-09-27T17:58:27.998Z,22.2
2022-09-27T18:04:09.780Z,22.1
2022-09-27T18:09:32.379Z,22.1
2022-09-27T18:14:55.173Z,22
2022-09-27T18:20:33.089Z,22
2022-09-27T18:25:56.012Z,21.9
2022-09-27T18:31:35.151Z,21.9
2022-09-27T18:37:13.213Z,21.8
2022-09-27T18:43:21.761Z,21.8
2022-09-27T18:49:25.726Z,21.8
2022-09-27T18:55:05.739Z,21.8
2022-09-27T19:00:32.923Z,21.7
2022-09-27T19:06:17.068Z,21.7
2022-09-27T19:11:38.975Z,21.6
2022-09-27T19:17:28.706Z,21.6
2022-09-27T19:23:07.157Z,21.6
2022-09-27T19:28:48.758Z,21.5
2022-09-27T19:34:32.075Z,21.5
2022-09-27T19:39:55.612Z,21.4
2022-09-27T19:45:17.625Z,21.4
2022-09-27T19:50:55.663Z,21.4
2022-09-27T19:56:23.614Z,21.4
2022-09-27T20:01:51.296Z,21.4
2022-09-27T20:07:35.389Z,21.4
2022-09-27T20:13:02.148Z,21.4
2022-09-27T20:18:42.289Z,21.3
2022-09-27T20:24:20.091Z,21.3
2022-09-27T20:29:42.829Z,21.3
2022-09-27T20:35:52.296Z,21.3
2022-09-27T20:41:32.775Z,21.3
2022-09-27T20:47:10.853Z,21.3
2022-09-27T20:52:51.997Z,21.3
2022-09-27T20:58:51.991Z,21.3
2022-09-27T21:04:37.970Z,21.2
2022-09-27T21:10:14.776Z,21.2
2022-09-27T21:15:56.676Z,21.2
2022-09-27T21:21:35.757Z,21.2
2022-09-27T21:27:12.730Z,21.2
2022-09-27T21:32:51.457Z,21.3
2022-09-27T21:38:28.997Z,21.3
2022-09-27T21:44:06.566Z,21.3
2022-09-27T21:49:43.888Z,21.3
2022-09-27T21:55:27.340Z,21.4
